createdAt,value
2022-09-03T00:02:47.422Z,72.66
2022-09-03T00:06:20.833Z,72.55
2022-09-03T00:09:28.819Z,72.74
2022-09-03T00:12:40.192Z,73.26
2022-09-03T00:15:42.529Z,72.96
2022-09-03T00:19:03.802Z,72.85
2022-09-03T00:22:32.374Z,72.48
2022-09-03T00:25:41.377Z,72.58
2022-09-03T00:28:52.238Z,72.51
2022-09-03T00:31:58.282Z,72.73
2022-09-03T00:35:06.507Z,72.30
2022-09-03T00:38:09.446Z,71.86
2022-09-03T00:41:11.387Z,71.43
2022-09-03T00:44:38.310Z,71.99
2022-09-03T00:48:17.809Z,72.66
2022-09-03T00:51:31.991Z,72.61
2022-09-03T00:54:58.809Z,72.36
2022-09-03T00:58:13.557Z,73.28
2022-09-03T01:01:40.776Z,72.65
2022-09-03T01:05:21.088Z,72.55
2022-09-03T01:08:42.222Z,73.04
2022-09-03T01:12:06.791Z,73.01
2022-09-03T01:15:17.650Z,73.87
2022-09-03T01:18:46.634Z,73.70
2022-09-03T01:22:21.065Z,72.80
2022-09-03T01:25:58.102Z,72.99
2022-09-03T01:29:23.277Z,73.07
2022-09-03T01:32:33.330Z,73.12
2022-09-03T01:35:51.012Z,73.08
2022-09-03T01:39:04.194Z,72.90
2022-09-03T01:42:30.184Z,73.85
2022-09-03T01:45:46.755Z,74.18
2022-09-03T01:49:06.647Z,73.53
2022-09-03T01:52:18.191Z,73.49
2022-09-03T01:55:57.928Z,73.44
2022-09-03T01:59:21.115Z,73.86
2022-09-03T02:02:25.992Z,74.08
2022-09-03T02:05:29.605Z,75.06
2022-09-03T02:08:32.063Z,74.06
2022-09-03T02:11:34.236Z,74.46
2022-09-03T02:14:36.412Z,74.22
2022-09-03T02:17:40.931Z,74.67
2022-09-03T02:20:43.421Z,74.50
2022-09-03T02:23:46.327Z,72.94
2022-09-03T02:26:48.462Z,72.56
2022-09-03T02:29:50.711Z,73.35
2022-09-03T02:32:52.793Z,72.25
2022-09-03T02:35:55.251Z,73.76
2022-09-03T02:38:57.792Z,73.81
2022-09-03T02:42:00.147Z,74.56
2022-09-03T02:45:13.054Z,73.99
2022-09-03T02:48:19.202Z,73.69
2022-09-03T02:51:21.497Z,73.67
2022-09-03T02:54:23.962Z,73.91
2022-09-03T02:57:27.891Z,74.49
2022-09-03T03:00:30.255Z,71.88
2022-09-03T03:03:32.304Z,73.32
2022-09-03T03:06:34.553Z,73.74
2022-09-03T03:09:36.634Z,75.05
2022-09-03T03:12:39.436Z,74.42
2022-09-03T03:15:42.064Z,74.20
2022-09-03T03:18:47.507Z,74.88
2022-09-03T03:21:49.544Z,75.85
2022-09-03T03:24:52.837Z,76.50
2022-09-03T03:27:57.057Z,76.20
2022-09-03T03:31:05.562Z,73.78
2022-09-03T03:34:07.704Z,74.09
2022-09-03T03:37:09.982Z,74.56
2022-09-03T03:40:12.961Z,74.32
2022-09-03T03:43:15.133Z,74.53
2022-09-03T03:46:17.522Z,73.67
2022-09-03T03:49:19.907Z,73.89
2022-09-03T03:52:21.986Z,73.98
2022-09-03T03:55:26.952Z,75.82
2022-09-03T03:58:31.197Z,76.43
2022-09-03T04:01:33.509Z,75.56
2022-09-03T04:04:35.613Z,75.18
2022-09-03T04:07:37.924Z,74.98
2022-09-03T04:10:39.992Z,75.75
2022-09-03T04:13:43.498Z,75.11
2022-09-03T04:16:46.950Z,75.06
2022-09-03T04:19:49.658Z,75.94
2022-09-03T04:22:52.113Z,76.43
2022-09-03T04:25:54.484Z,76.18
2022-09-03T04:28:56.792Z,76.29
2022-09-03T04:32:18.462Z,76.14
2022-09-03T04:35:21.150Z,77.14
2022-09-03T04:38:24.358Z,77.29
2022-09-03T04:41:28.815Z,77.41
2022-09-03T04:44:31.047Z,78.08
2022-09-03T04:47:33.176Z,77.94
2022-09-03T04:50:35.657Z,77.59
2022-09-03T04:53:42.206Z,79.04
2022-09-03T04:56:44.782Z,79.51
2022-09-03T04:59:47.365Z,79.28
2022-09-03T05:02:51.877Z,80.56
2022-09-03T05:05:55.472Z,79.96
2022-09-03T05:08:58.465Z,80.93
2022-09-03T05:12:00.694Z,80.97
2022-09-03T05:15:05.413Z,81.26
2022-09-03T05:18:07.346Z,81.31
2022-09-03T05:21:11.842Z,81.73
2022-09-03T05:24:15.293Z,83.25
2022-09-03T05:27:18.062Z,84.20
2022-09-03T05:30:22.787Z,85.60
2022-09-03T05:33:25.109Z,88.05
2022-09-03T05:36:32.856Z,88.71
2022-09-03T05:39:35.302Z,90.71
2022-09-03T05:42:38.887Z,90.19
2022-09-03T05:45:41.931Z,90.20
2022-09-03T05:48:44.669Z,89.13
2022-09-03T05:51:47.030Z,86.90
2022-09-03T05:54:49.469Z,83.98
2022-09-03T05:57:52.410Z,80.10
2022-09-03T06:00:54.631Z,78.82
2022-09-03T06:04:02.449Z,77.55
2022-09-03T06:07:04.541Z,73.01
2022-09-03T06:10:07.847Z,71.54
2022-09-03T06:13:10.669Z,69.21
2022-09-03T06:16:13.215Z,67.43
2022-09-03T06:19:15.899Z,66.21
2022-09-03T06:22:18.207Z,64.07
2022-09-03T06:25:20.399Z,62.63
2022-09-03T06:28:23.661Z,61.84
2022-09-03T06:31:28.837Z,59.87
2022-09-03T06:34:31.047Z,57.95
2022-09-03T06:37:33.271Z,57.20
2022-09-03T06:40:35.594Z,56.87
2022-09-03T06:43:40.758Z,53.79
2022-09-03T06:46:43.412Z,53.63
2022-09-03T06:49:45.547Z,52.25
2022-09-03T06:52:56.585Z,50.66
2022-09-03T06:56:01.850Z,50.58
2022-09-03T06:59:07.008Z,50.72
2022-09-03T07:02:09.248Z,51.19
2022-09-03T07:05:11.946Z,49.81
2022-09-03T07:08:30.411Z,48.20
2022-09-03T07:11:33.849Z,49.34
2022-09-03T07:14:35.961Z,47.38
2022-09-03T07:17:38.314Z,48.89
2022-09-03T07:20:40.310Z,48.64
2022-09-03T07:23:43.462Z,48.55
2022-09-03T07:26:47.238Z,47.49
2022-09-03T07:29:49.537Z,48.41
2022-09-03T07:32:51.766Z,48.16
2022-09-03T07:35:54.034Z,48.46
2022-09-03T07:38:57.617Z,45.80
2022-09-03T07:42:00.854Z,45.96
2022-09-03T07:45:05.495Z,44.82
2022-09-03T07:48:07.933Z,42.90
2022-09-03T07:51:10.201Z,42.95
2022-09-03T07:54:12.512Z,43.21
2022-09-03T07:57:14.704Z,40.09
2022-09-03T08:00:18.043Z,40.95
2022-09-03T08:03:20.144Z,39.44
2022-09-03T08:06:24.602Z,39.75
2022-09-03T08:09:26.839Z,39.08
2022-09-03T08:12:29.157Z,38.97
2022-09-03T08:15:32.081Z,36.40
2022-09-03T08:18:37.895Z,38.81
2022-09-03T08:21:42.953Z,39.04
2022-09-03T08:24:45.413Z,37.22
2022-09-03T08:27:47.420Z,37.30
2022-09-03T08:30:49.911Z,35.79
2022-09-03T08:33:54.552Z,37.37
2022-09-03T08:36:57.119Z,35.12
2022-09-03T08:40:00.472Z,32.95
2022-09-03T08:43:17.415Z,35.17
2022-09-03T08:46:20.757Z,33.60
2022-09-03T08:49:39.809Z,33.12
2022-09-03T08:52:49.928Z,31.70
2022-09-03T08:55:58.691Z,33.76
2022-09-03T08:59:01.624Z,31.30
2022-09-03T09:02:25.798Z,29.62
2022-09-03T09:05:51.929Z,30.12
2022-09-03T09:09:12.965Z,30.13
2022-09-03T09:12:34.069Z,29.89
2022-09-03T09:16:00.911Z,28.29
2022-09-03T09:19:11.972Z,29.95
2022-09-03T09:22:30.058Z,30.15
2022-09-03T09:25:32.900Z,29.12
2022-09-03T09:28:39.578Z,29.26
2022-09-03T09:31:45.094Z,29.52
2022-09-03T09:34:52.069Z,28.91
2022-09-03T09:37:57.481Z,27.22
2022-09-03T09:41:15.512Z,27.71
2022-09-03T09:44:20.238Z,29.41
2022-09-03T09:47:29.738Z,28.14
2022-09-03T09:50:31.748Z,27.70
2022-09-03T09:53:35.307Z,28.36
2022-09-03T09:56:37.386Z,29.11
2022-09-03T09:59:39.807Z,27.46
2022-09-03T10:02:54.535Z,26.91
2022-09-03T10:06:27.160Z,26.87
2022-09-03T10:09:31.855Z,26.68
2022-09-03T10:13:09.372Z,26.84
2022-09-03T10:16:22.548Z,25.94
2022-09-03T10:19:34.655Z,28.18
2022-09-03T10:22:56.098Z,25.71
2022-09-03T10:26:09.419Z,26.87
2022-09-03T10:29:12.396Z,27.82
2022-09-03T10:32:37.841Z,27.33
2022-09-03T10:36:04.846Z,26.74
2022-09-03T10:39:33.427Z,28.93
2022-09-03T10:42:55.280Z,27.26
2022-09-03T10:46:23.818Z,26.96
2022-09-03T10:49:54.232Z,25.48
2022-09-03T10:53:38.729Z,25.45
2022-09-03T10:56:51.064Z,26.80
2022-09-03T11:00:15.852Z,26.41
2022-09-03T11:03:25.955Z,26.53
2022-09-03T11:06:29.939Z,26.21
2022-09-03T11:09:40.074Z,25.27
2022-09-03T11:12:56.432Z,24.46
2022-09-03T11:16:26.964Z,25.14
2022-09-03T11:19:48.350Z,26.18
2022-09-03T11:22:53.405Z,25.66
2022-09-03T11:26:00.010Z,25.60
2022-09-03T11:29:13.006Z,27.05
2022-09-03T11:32:19.363Z,27.35
2022-09-03T11:35:28.459Z,25.87
2022-09-03T11:38:34.646Z,28.05
2022-09-03T11:41:37.551Z,27.32
2022-09-03T11:44:51.322Z,25.41
2022-09-03T11:47:54.289Z,27.07
2022-09-03T11:50:56.681Z,27.30
2022-09-03T11:54:05.812Z,28.91
2022-09-03T11:57:16.162Z,27.08
2022-09-03T12:00:22.571Z,25.33
2022-09-03T12:03:47.717Z,26.38
2022-09-03T12:07:07.267Z,24.87
2022-09-03T12:10:47.022Z,25.38
2022-09-03T12:14:07.001Z,26.42
2022-09-03T12:17:35.490Z,27.56
2022-09-03T12:20:37.882Z,27.34
2022-09-03T12:23:46.398Z,26.06
2022-09-03T12:26:48.458Z,25.47
2022-09-03T12:29:59.838Z,26.55
2022-09-03T12:33:11.987Z,26.21
2022-09-03T12:36:14.729Z,27.13
2022-09-03T12:42:50.765Z,26.59
2022-09-03T12:46:10.484Z,26.01
2022-09-03T12:49:30.993Z,27.32
2022-09-03T12:52:43.181Z,26.63
2022-09-03T12:55:53.980Z,25.25
2022-09-03T12:58:59.582Z,26.44
2022-09-03T13:02:09.856Z,27.17
2022-09-03T13:05:17.144Z,27.20
2022-09-03T13:08:26.748Z,25.89
2022-09-03T13:11:33.204Z,25.77
2022-09-03T13:14:48.268Z,26.27
2022-09-03T13:18:19.488Z,25.79
2022-09-03T13:21:27.900Z,28.84
2022-09-03T13:24:48.482Z,27.49
2022-09-03T13:27:56.445Z,27.29
2022-09-03T13:31:26.181Z,28.44
2022-09-03T13:34:35.507Z,27.21
2022-09-03T13:37:48.331Z,28.43
2022-09-03T13:41:10.798Z,27.56
2022-09-03T13:44:24.843Z,27.60
2022-09-03T13:48:09.032Z,27.42
2022-09-03T13:51:16.775Z,26.96
2022-09-03T13:54:48.557Z,27.02
2022-09-03T13:58:02.303Z,27.22
2022-09-03T14:01:13.471Z,28.41
2022-09-03T14:04:23.115Z,27.21
2022-09-03T14:07:39.222Z,27.37
2022-09-03T14:11:20.217Z,27.12
2022-09-03T14:15:00.123Z,27.33
2022-09-03T14:18:39.823Z,27.18
2022-09-03T14:21:47.467Z,26.64
2022-09-03T14:24:55.098Z,26.99
2022-09-03T14:28:34.020Z,28.22
2022-09-03T14:31:58.070Z,26.36
2022-09-03T14:35:28.895Z,27.70
2022-09-03T14:38:58.366Z,27.97
2022-09-03T14:42:06.481Z,25.55
2022-09-03T14:46:03.579Z,27.83
2022-09-03T14:49:14.215Z,26.75
2022-09-03T14:52:28.805Z,28.35
2022-09-03T14:56:07.134Z,27.09
2022-09-03T14:59:40.202Z,27.79
2022-09-03T15:03:01.283Z,27.50
2022-09-03T15:06:33.913Z,26.46
2022-09-03T15:09:46.263Z,27.41
2022-09-03T15:12:59.853Z,27.65
2022-09-03T15:16:02.312Z,27.33
2022-09-03T15:19:14.364Z,27.11
2022-09-03T15:22:28.440Z,28.23
2022-09-03T15:25:52.323Z,26.70
2022-09-03T15:29:16.548Z,27.98
2022-09-03T15:32:47.245Z,27.47
2022-09-03T15:36:04.288Z,27.94
2022-09-03T15:39:06.379Z,29.23
2022-09-03T15:42:31.816Z,30.25
2022-09-03T15:45:40.777Z,28.78
2022-09-03T15:49:03.420Z,27.61
2022-09-03T15:52:11.350Z,28.77
2022-09-03T15:55:15.003Z,27.25
2022-09-03T15:58:37.647Z,29.75
2022-09-03T16:01:58.097Z,27.93
2022-09-03T16:05:08.171Z,28.34
2022-09-03T16:08:32.548Z,30.46
2022-09-03T16:11:49.818Z,29.43
2022-09-03T16:15:02.677Z,28.36
2022-09-03T16:18:35.811Z,30.71
2022-09-03T16:22:25.772Z,30.58
2022-09-03T16:25:33.113Z,33.21
2022-09-03T16:32:22.900Z,31.68
2022-09-03T16:35:55.902Z,35.81
2022-09-03T16:39:16.727Z,37.08
2022-09-03T16:42:41.193Z,35.04
2022-09-03T16:45:51.950Z,35.45
2022-09-03T16:49:23.258Z,35.64
2022-09-03T16:52:43.762Z,37.62
2022-09-03T16:56:04.437Z,39.44
2022-09-03T16:59:44.095Z,39.62
2022-09-03T17:03:01.137Z,40.67
2022-09-03T17:06:22.002Z,41.10
2022-09-03T17:09:39.049Z,41.07
2022-09-03T17:13:02.335Z,40.33
2022-09-03T17:16:23.652Z,38.87
2022-09-03T17:19:38.809Z,40.67
2022-09-03T17:23:18.666Z,41.57
2022-09-03T17:26:47.827Z,41.18
2022-09-03T17:30:05.344Z,42.06
2022-09-03T17:33:35.641Z,42.36
2022-09-03T17:36:38.890Z,42.67
2022-09-03T17:39:50.018Z,42.82
2022-09-03T17:43:17.189Z,43.19
2022-09-03T17:46:42.008Z,43.45
2022-09-03T17:49:54.373Z,43.24
2022-09-03T17:53:26.878Z,43.54
2022-09-03T17:56:55.556Z,43.41
2022-09-03T18:00:08.004Z,44.11
2022-09-03T18:03:27.601Z,44.16
2022-09-03T18:06:52.940Z,44.89
2022-09-03T18:10:32.896Z,46.65
2022-09-03T18:13:47.636Z,46.57
2022-09-03T18:17:00.166Z,46.30
2022-09-03T18:20:30.353Z,47.41
2022-09-03T18:23:57.973Z,47.75
2022-09-03T18:27:22.648Z,46.45
2022-09-03T18:30:44.739Z,48.33
2022-09-03T18:34:08.019Z,47.65
2022-09-03T18:37:29.418Z,48.72
2022-09-03T18:41:15.291Z,49.38
2022-09-03T18:45:06.638Z,48.46
2022-09-03T18:49:14.024Z,47.72
2022-09-03T18:53:00.994Z,48.93
2022-09-03T18:56:35.074Z,48.61
2022-09-03T19:00:10.032Z,48.83
2022-09-03T19:03:39.755Z,49.74
2022-09-03T19:07:21.433Z,50.04
2022-09-03T19:10:48.355Z,50.59
2022-09-03T19:14:10.074Z,50.49
2022-09-03T19:18:00.559Z,50.88
2022-09-03T19:21:43.225Z,51.59
2022-09-03T19:25:03.791Z,52.41
2022-09-03T19:28:49.953Z,52.75
2022-09-03T19:32:23.565Z,52.22
2022-09-03T19:35:55.776Z,52.48
2022-09-03T19:39:22.473Z,53.41
2022-09-03T19:43:00.689Z,54.11
2022-09-03T19:46:41.601Z,54.97
2022-09-03T19:50:21.301Z,55.60
2022-09-03T19:53:42.676Z,54.83
2022-09-03T19:57:04.885Z,54.99
2022-09-03T20:00:32.518Z,55.94
2022-09-03T20:03:54.838Z,56.23
2022-09-03T20:07:17.425Z,56.78
2022-09-03T20:10:23.976Z,56.74
2022-09-03T20:13:26.550Z,57.06
2022-09-03T20:16:34.663Z,58.01
2022-09-03T20:19:42.813Z,58.29
2022-09-03T20:22:51.661Z,58.68
2022-09-03T20:26:02.256Z,58.83
2022-09-03T20:29:23.500Z,59.05
2022-09-03T20:32:25.654Z,59.29
2022-09-03T20:35:36.937Z,59.91
2022-09-03T20:38:38.930Z,59.89
2022-09-03T20:42:02.920Z,59.90
2022-09-03T20:45:16.706Z,60.01
2022-09-03T20:49:05.228Z,59.92
2022-09-03T20:52:21.088Z,60.59
2022-09-03T20:55:29.948Z,61.02
2022-09-03T20:58:37.934Z,61.44
2022-09-03T21:02:03.675Z,61.06
2022-09-03T21:05:12.579Z,61.45
2022-09-03T21:08:44.039Z,61.79
2022-09-03T21:12:03.774Z,62.25
2022-09-03T21:15:18.479Z,62.62
2022-09-03T21:18:38.934Z,62.72
2022-09-03T21:22:03.151Z,62.41
2022-09-03T21:25:09.562Z,63.06
2022-09-03T21:28:22.528Z,62.88
2022-09-03T21:31:31.923Z,62.78
2022-09-03T21:34:45.326Z,63.14
2022-09-03T21:37:58.344Z,63.33
2022-09-03T21:41:17.502Z,63.35
2022-09-03T21:44:39.437Z,63.42
2022-09-03T21:47:45.304Z,64.04
2022-09-03T21:50:53.194Z,64.09
2022-09-03T21:54:17.071Z,63.63
2022-09-03T21:57:22.215Z,63.90
2022-09-03T22:00:32.787Z,64.28
2022-09-03T22:03:35.212Z,63.96
2022-09-03T22:06:49.259Z,63.90
2022-09-03T22:10:16.754Z,63.52
2022-09-03T22:13:32.177Z,63.49
2022-09-03T22:16:43.188Z,64.06
2022-09-03T22:19:46.002Z,64.87
2022-09-03T22:23:11.876Z,64.67
2022-09-03T22:26:26.934Z,64.95
2022-09-03T22:29:46.754Z,65.01
2022-09-03T22:32:54.392Z,65.40
2022-09-03T22:36:25.484Z,64.69
2022-09-03T22:39:36.611Z,65.24
2022-09-03T22:43:05.147Z,65.08
2022-09-03T22:46:12.040Z,66.00
2022-09-03T22:49:53.091Z,66.05
2022-09-03T22:53:26.456Z,65.85
2022-09-03T22:56:32.222Z,66.31
2022-09-03T22:59:41.802Z,65.38
2022-09-03T23:02:46.484Z,65.50
2022-09-03T23:06:02.477Z,65.96
2022-09-03T23:09:10.267Z,65.71
2022-09-03T23:12:21.944Z,65.22
2022-09-03T23:15:29.985Z,65.95
2022-09-03T23:18:34.021Z,65.50
2022-09-03T23:21:41.005Z,65.81
2022-09-03T23:24:50.390Z,66.09
2022-09-03T23:27:55.154Z,66.20
2022-09-03T23:31:12.068Z,66.65
2022-09-03T23:34:14.142Z,66.07
2022-09-03T23:37:55.199Z,66.72
2022-09-03T23:41:01.189Z,65.82
2022-09-03T23:44:33.225Z,65.33
2022-09-03T23:47:44.972Z,65.21
2022-09-03T23:50:58.367Z,65.91
2022-09-03T23:54:38.126Z,65.89
2022-09-03T23:57:41.745Z,65.58
